createdAt,value
2023-01-27T00:04:32.573Z,65.96499
2023-01-27T00:09:34.187Z,64.74513
2023-01-27T00:14:35.878Z,62.33018
2023-01-27T00:19:37.568Z,64.80685
2023-01-27T00:24:39.203Z,63.57442
2023-01-27T00:29:40.970Z,64.48904
2023-01-27T00:34:42.907Z,63.45272
2023-01-27T00:39:44.545Z,63.06917
2023-01-27T00:44:46.241Z,65.68129
2023-01-27T00:49:47.843Z,65.11212
2023-01-27T00:54:49.523Z,63.08672
2023-01-27T00:59:51.170Z,63.2375
2023-01-27T01:04:52.818Z,62.04293
2023-01-27T01:09:54.414Z,63.33699
2023-01-27T01:14:56.004Z,63.53623
2023-01-27T01:19:57.867Z,64.73958
2023-01-27T01:24:59.458Z,66.02057
2023-01-27T01:30:01.318Z,66.29698
2023-01-27T01:35:05.062Z,67.97768
2023-01-27T01:40:06.934Z,66.16641
2023-01-27T01:45:08.898Z,65.44035
2023-01-27T01:50:10.977Z,63.38981
2023-01-27T01:55:13.295Z,65.20808
2023-01-27T02:00:15.474Z,64.58869
2023-01-27T02:05:17.360Z,65.12685
2023-01-27T02:10:19.109Z,68.06879
2023-01-27T02:15:20.816Z,65.94684
2023-01-27T02:20:22.585Z,65.60711
2023-01-27T02:25:24.167Z,64.36773
2023-01-27T02:30:25.869Z,65.16733
2023-01-27T02:35:27.687Z,67.19431
2023-01-27T02:40:29.265Z,66.72219
2023-01-27T02:45:30.913Z,67.03885
2023-01-27T02:50:32.567Z,66.71652
2023-01-27T02:55:34.187Z,65.80137
2023-01-27T03:00:35.851Z,64.86972
2023-01-27T03:05:37.556Z,66.12726
2023-01-27T03:10:39.176Z,66.60899
2023-01-27T03:15:40.810Z,65.44849
2023-01-27T03:20:42.530Z,66.31556
2023-01-27T03:25:44.157Z,65.97727
2023-01-27T03:30:45.981Z,69.51156
2023-01-27T03:35:47.632Z,66.32222
2023-01-27T03:40:49.272Z,65.69756
2023-01-27T03:45:51.106Z,67.59559
2023-01-27T03:50:52.951Z,68.73925
2023-01-27T03:55:54.810Z,68.71003
2023-01-27T04:00:56.528Z,69.89509
2023-01-27T04:05:58.175Z,69.20506
2023-01-27T04:10:59.828Z,68.8903
2023-01-27T04:16:01.660Z,71.78096
2023-01-27T04:21:03.273Z,71.91619
2023-01-27T04:26:05.079Z,72.48767
2023-01-27T04:31:06.785Z,72.67994
2023-01-27T04:36:08.491Z,72.2521
2023-01-27T04:41:10.313Z,72.97004
2023-01-27T04:46:12.185Z,71.89751
2023-01-27T04:51:13.814Z,72.88972
2023-01-27T04:56:15.457Z,73.20336
2023-01-27T05:01:17.045Z,72.7319
2023-01-27T05:06:18.701Z,72.80447
2023-01-27T05:11:20.437Z,71.80647
2023-01-27T05:16:22.171Z,72.76146
2023-01-27T05:21:24.367Z,71.5968
2023-01-27T05:26:25.986Z,72.55985
2023-01-27T05:31:27.862Z,72.67587
2023-01-27T05:36:29.554Z,72.91009
2023-01-27T05:41:31.203Z,72.87437
2023-01-27T05:46:32.980Z,72.32505
2023-01-27T05:51:34.633Z,71.89323
2023-01-27T05:56:36.278Z,71.33202
2023-01-27T06:01:38.009Z,69.94555
2023-01-27T06:06:39.660Z,68.11492
2023-01-27T06:11:41.290Z,72.46285
2023-01-27T06:16:43.000Z,71.8451
2023-01-27T06:21:44.814Z,72.84509
2023-01-27T06:26:46.481Z,72.83148
2023-01-27T06:31:48.153Z,72.47828
2023-01-27T06:36:50.041Z,72.40662
2023-01-27T06:41:51.979Z,71.73058
2023-01-27T06:46:59.047Z,72.13503
2023-01-27T06:52:00.680Z,70.86938
2023-01-27T06:57:02.384Z,70.39284
2023-01-27T07:02:04.103Z,70.68763
2023-01-27T07:07:05.708Z,71.6451
2023-01-27T07:12:07.300Z,71.88376
2023-01-27T07:17:08.909Z,69.98146
2023-01-27T07:22:10.488Z,70.56811
2023-01-27T07:27:12.098Z,70.32564
2023-01-27T07:32:13.758Z,69.3968
2023-01-27T07:37:15.521Z,69.60073
2023-01-27T07:42:17.299Z,71.30173
2023-01-27T07:47:19.051Z,71.9378
2023-01-27T07:52:20.693Z,71.7261
2023-01-27T07:57:22.461Z,71.90159
2023-01-27T08:02:24.149Z,70.75968
2023-01-27T08:07:25.817Z,70.65647
2023-01-27T08:12:27.464Z,71.00728
2023-01-27T08:17:29.175Z,71.33327
2023-01-27T08:22:30.808Z,70.51307
2023-01-27T08:27:32.507Z,69.01503
2023-01-27T08:32:34.246Z,70.21886
2023-01-27T08:37:35.886Z,71.60817
2023-01-27T08:42:37.532Z,71.65385
2023-01-27T08:47:39.307Z,71.21191
2023-01-27T08:52:40.914Z,70.91124
2023-01-27T08:57:42.580Z,71.61331
2023-01-27T09:02:46.469Z,71.61499
2023-01-27T09:07:48.265Z,69.88826
2023-01-27T09:12:49.948Z,69.28436
2023-01-27T09:17:51.705Z,70.74995
2023-01-27T09:22:53.342Z,70.64565
2023-01-27T09:27:54.990Z,69.54508
2023-01-27T09:32:56.807Z,69.94003
2023-01-27T09:37:58.506Z,72.61246
2023-01-27T09:43:00.169Z,70.55962
2023-01-27T09:48:01.847Z,72.66248
2023-01-27T09:53:03.497Z,73.14509
2023-01-27T09:58:05.189Z,74.73475
2023-01-27T10:03:06.792Z,76.21652
2023-01-27T10:08:08.622Z,77.15246
2023-01-27T10:13:10.405Z,76.67444
2023-01-27T10:18:12.067Z,77.0251
2023-01-27T10:23:13.722Z,77.22545
2023-01-27T10:28:15.632Z,78.44653
2023-01-27T10:33:17.412Z,80.4318
2023-01-27T10:38:19.021Z,76.23357
2023-01-27T10:43:20.643Z,73.51324
2023-01-27T10:48:22.290Z,77.39553
2023-01-27T10:53:23.947Z,73.63645
2023-01-27T10:58:25.572Z,70.9001
2023-01-27T11:03:27.234Z,75.60386
2023-01-27T11:08:28.885Z,71.9693
2023-01-27T11:13:30.519Z,70.09935
2023-01-27T11:18:32.143Z,71.95501
2023-01-27T11:23:33.767Z,72.30767
2023-01-27T11:28:35.385Z,73.04162
2023-01-27T11:33:36.987Z,72.90503
2023-01-27T11:38:38.722Z,70.96417
2023-01-27T11:43:40.299Z,71.06809
2023-01-27T11:48:41.944Z,74.36517
2023-01-27T11:53:43.753Z,72.74089
2023-01-27T11:58:45.405Z,71.80734
2023-01-27T12:03:47.160Z,71.40904
2023-01-27T12:08:48.879Z,71.80678
2023-01-27T12:13:50.516Z,71.60789
2023-01-27T12:18:52.160Z,72.3575
2023-01-27T12:23:54.075Z,75.14153
2023-01-27T12:28:55.725Z,73.18506
2023-01-27T12:33:57.337Z,73.15733
2023-01-27T12:38:58.953Z,71.58904
2023-01-27T12:44:00.565Z,72.02929
2023-01-27T12:49:02.257Z,71.18598
2023-01-27T12:54:03.901Z,71.02366
2023-01-27T12:59:05.515Z,70.93187
2023-01-27T13:04:07.223Z,71.9951
2023-01-27T13:09:08.852Z,69.29292
2023-01-27T13:14:10.478Z,71.00707
2023-01-27T13:19:12.121Z,71.64348
2023-01-27T13:24:13.942Z,71.80448
2023-01-27T13:29:15.692Z,73.09951
2023-01-27T13:34:17.371Z,72.1674
2023-01-27T13:39:19.616Z,74.48754
2023-01-27T13:44:21.243Z,71.71735
2023-01-27T13:49:22.960Z,73.52734
2023-01-27T13:54:24.735Z,72.94579
2023-01-27T13:59:26.363Z,71.65501
2023-01-27T14:04:27.998Z,73.10541
2023-01-27T14:09:29.633Z,72.8125
2023-01-27T14:14:31.199Z,71.47503
2023-01-27T14:19:32.833Z,72.30768
2023-01-27T14:24:34.696Z,72.53739
2023-01-27T14:29:36.381Z,77.41855
2023-01-27T14:34:37.995Z,73.82724
2023-01-27T14:39:39.695Z,71.68698
2023-01-27T14:44:44.150Z,72.14843
2023-01-27T14:49:57.192Z,74.78312
2023-01-27T14:54:58.879Z,76.35504
2023-01-27T15:00:00.964Z,82.0868
2023-01-27T15:05:02.668Z,81.2597
2023-01-27T15:10:04.471Z,73.98678
2023-01-27T15:15:06.092Z,73.24143
2023-01-27T15:20:07.891Z,74.41806
2023-01-27T15:25:09.749Z,75.26735
2023-01-27T15:30:11.968Z,72.51859
2023-01-27T15:35:14.011Z,74.15696
2023-01-27T15:40:15.917Z,73.0248
2023-01-27T15:45:17.768Z,75.54634
2023-01-27T15:50:19.433Z,74.72834
2023-01-27T15:55:21.064Z,79.03894
2023-01-27T16:00:22.676Z,75.08412
2023-01-27T16:05:24.289Z,73.98947
2023-01-27T16:10:25.867Z,73.4717
2023-01-27T16:15:27.554Z,71.96383
2023-01-27T16:20:29.176Z,71.18672
2023-01-27T16:25:30.806Z,72.27591
2023-01-27T16:30:32.474Z,73.99929
2023-01-27T16:35:34.214Z,73.09719
2023-01-27T16:40:35.848Z,72.21164
2023-01-27T16:45:37.521Z,71.54972
2023-01-27T16:50:39.336Z,71.74076
2023-01-27T16:55:41.020Z,71.58839
2023-01-27T17:00:42.779Z,72.4896
2023-01-27T17:05:44.463Z,70.14008
2023-01-27T17:10:46.091Z,71.04374
2023-01-27T17:15:47.744Z,70.31014
2023-01-27T17:20:49.379Z,76.20754
2023-01-27T17:25:51.102Z,76.75524
2023-01-27T17:30:52.887Z,72.48131
2023-01-27T17:35:54.554Z,72.46138
2023-01-27T17:40:56.188Z,72.3564
2023-01-27T17:45:57.830Z,70.42673
2023-01-27T17:50:59.570Z,70.50906
2023-01-27T17:56:01.220Z,73.41043
2023-01-27T18:01:02.940Z,70.67581
2023-01-27T18:06:04.580Z,70.71817
2023-01-27T18:11:06.221Z,74.17637
2023-01-27T18:16:07.958Z,71.13894
2023-01-27T18:21:09.662Z,69.52394
2023-01-27T18:26:11.342Z,69.94526
2023-01-27T18:31:13.152Z,70.67386
2023-01-27T18:36:14.838Z,71.72409
2023-01-27T18:41:16.595Z,70.69994
2023-01-27T18:46:18.247Z,69.45583
2023-01-27T18:51:19.919Z,70.33
2023-01-27T18:56:21.707Z,72.25909
2023-01-27T19:01:23.310Z,71.7273
2023-01-27T19:06:25.010Z,72.43376
2023-01-27T19:11:26.826Z,71.76095
2023-01-27T19:16:28.490Z,72.67872
2023-01-27T19:21:30.148Z,70.15623
2023-01-27T19:26:31.815Z,69.74006
2023-01-27T19:31:33.512Z,66.98696
2023-01-27T19:36:35.188Z,67.26072
2023-01-27T19:41:36.904Z,70.34675
2023-01-27T19:46:38.955Z,67.7362
2023-01-27T19:51:40.575Z,70.15587
2023-01-27T19:56:42.313Z,69.40084
2023-01-27T20:01:43.948Z,70.62745
2023-01-27T20:06:45.592Z,67.3305
2023-01-27T20:11:47.208Z,67.38919
2023-01-27T20:16:48.903Z,66.76391
2023-01-27T20:21:50.559Z,67.71713
2023-01-27T20:26:52.160Z,66.82817
2023-01-27T20:31:53.838Z,67.93243
2023-01-27T20:36:55.500Z,65.69096
2023-01-27T20:41:57.293Z,65.99465
2023-01-27T20:46:58.902Z,64.43477
2023-01-27T20:52:00.482Z,64.02069
2023-01-27T20:57:02.094Z,65.27899
2023-01-27T21:02:03.735Z,65.49492
2023-01-27T21:07:05.375Z,65.65517
2023-01-27T21:12:07.056Z,64.10278
2023-01-27T21:17:08.725Z,66.59137
2023-01-27T21:22:10.395Z,66.57456
2023-01-27T21:27:11.995Z,64.84552
2023-01-27T21:32:13.623Z,64.79403
2023-01-27T21:37:15.250Z,64.21033
2023-01-27T21:42:16.835Z,63.66088
2023-01-27T21:47:18.524Z,62.56634
2023-01-27T21:52:20.160Z,63.99641
2023-01-27T21:57:21.842Z,63.63469
2023-01-27T22:02:23.564Z,62.05334
2023-01-27T22:07:25.368Z,61.77075
2023-01-27T22:12:27.043Z,61.96612
2023-01-27T22:17:28.681Z,60.28413
2023-01-27T22:22:31.434Z,61.01158
2023-01-27T22:27:33.055Z,61.05835
2023-01-27T22:32:34.758Z,60.36882
2023-01-27T22:37:36.458Z,59.71212
2023-01-27T22:42:38.053Z,61.93913
2023-01-27T22:47:39.821Z,62.39833
2023-01-27T22:52:41.436Z,63.56846
2023-01-27T22:57:43.054Z,63.17932
2023-01-27T23:02:45.005Z,64.87621
2023-01-27T23:07:46.773Z,63.52644
2023-01-27T23:12:48.486Z,63.48262
2023-01-27T23:17:50.101Z,63.64662
2023-01-27T23:22:51.743Z,62.50612
2023-01-27T23:27:53.363Z,62.85856
2023-01-27T23:32:55.027Z,62.34822
2023-01-27T23:37:56.618Z,63.78415
2023-01-27T23:42:58.263Z,65.14841
2023-01-27T23:47:59.890Z,64.19257
2023-01-27T23:53:01.547Z,63.76622
2023-01-27T23:58:03.157Z,65.8899
